createdAt,value
2018-10-17T00:02:14.981Z,25.13
2018-10-17T00:04:43.393Z,24.67
2018-10-17T00:07:11.852Z,25.50
2018-10-17T00:09:40.181Z,24.33
2018-10-17T00:12:08.572Z,25.83
2018-10-17T00:14:36.949Z,26.47
2018-10-17T00:17:06.040Z,25.90
2018-10-17T00:19:34.409Z,24.50
2018-10-17T00:22:02.797Z,26.77
2018-10-17T00:24:31.165Z,26.87
2018-10-17T00:26:59.586Z,24.73
2018-10-17T00:29:28.193Z,25.80
2018-10-17T00:31:56.585Z,24.70
2018-10-17T00:34:24.989Z,25.70
2018-10-17T00:36:53.383Z,25.57
2018-10-17T00:39:21.775Z,25.47
2018-10-17T00:41:50.145Z,24.37
2018-10-17T00:44:18.541Z,25.50
2018-10-17T00:46:46.907Z,23.63
2018-10-17T00:49:15.385Z,25.80
2018-10-17T00:51:43.681Z,26.07
2018-10-17T00:54:12.069Z,24.90
2018-10-17T00:56:40.438Z,25.37
2018-10-17T00:59:12.130Z,26.83
2018-10-17T01:01:40.657Z,26.03
2018-10-17T01:04:09.364Z,26.33
2018-10-17T01:06:38.234Z,25.57
2018-10-17T01:09:10.090Z,27.30
2018-10-17T01:11:38.977Z,27.50
2018-10-17T01:14:07.796Z,26.30
2018-10-17T01:16:36.167Z,23.40
2018-10-17T01:19:05.199Z,25.73
2018-10-17T01:21:34.237Z,23.43
2018-10-17T01:24:02.781Z,24.43
2018-10-17T01:26:31.157Z,25.70
2018-10-17T01:28:59.557Z,27.70
2018-10-17T01:31:28.266Z,28.33
2018-10-17T01:33:56.681Z,27.43
2018-10-17T01:36:25.045Z,28.50
2018-10-17T01:38:53.441Z,28.20
2018-10-17T01:41:21.813Z,26.07
2018-10-17T01:43:50.205Z,25.37
2018-10-17T01:46:18.568Z,27.70
2018-10-17T01:48:46.965Z,29.10
2018-10-17T01:51:15.327Z,26.17
2018-10-17T01:53:51.357Z,27.60
2018-10-17T01:56:19.725Z,27.70
2018-10-17T01:58:48.117Z,26.60
2018-10-17T02:01:16.501Z,27.57
2018-10-17T02:03:44.897Z,27.30
2018-10-17T02:06:13.313Z,26.17
2018-10-17T02:08:41.713Z,24.67
2018-10-17T02:11:10.101Z,25.37
2018-10-17T02:13:38.509Z,26.17
2018-10-17T02:16:06.889Z,27.70
2018-10-17T02:18:35.277Z,24.73
2018-10-17T02:21:03.656Z,23.63
2018-10-17T02:23:32.053Z,24.90
2018-10-17T02:26:00.421Z,24.20
2018-10-17T02:28:28.821Z,23.50
2018-10-17T02:30:57.223Z,25.53
2018-10-17T02:33:25.628Z,24.67
2018-10-17T02:35:54.002Z,23.47
2018-10-17T02:38:22.409Z,24.87
2018-10-17T02:40:50.900Z,23.87
2018-10-17T02:43:19.355Z,26.03
2018-10-17T02:45:47.686Z,27.20
2018-10-17T02:48:16.058Z,25.00
2018-10-17T02:50:44.453Z,26.23
2018-10-17T02:53:12.927Z,25.23
2018-10-17T02:55:41.324Z,27.80
2018-10-17T02:58:09.716Z,25.23
2018-10-17T03:00:38.127Z,24.37
2018-10-17T03:03:06.527Z,28.33
2018-10-17T03:05:34.922Z,27.43
2018-10-17T03:08:03.335Z,25.57
2018-10-17T03:10:31.758Z,25.73
2018-10-17T03:13:00.367Z,24.20
2018-10-17T03:15:28.767Z,23.60
2018-10-17T03:17:57.147Z,26.80
2018-10-17T03:20:25.555Z,27.00
2018-10-17T03:22:53.960Z,25.67
2018-10-17T03:25:22.360Z,24.13
2018-10-17T03:27:50.807Z,25.50
2018-10-17T03:30:19.208Z,26.93
2018-10-17T03:32:47.625Z,24.00
2018-10-17T03:35:16.121Z,26.27
2018-10-17T03:37:44.453Z,24.80
2018-10-17T03:40:12.861Z,25.40
2018-10-17T03:42:41.244Z,24.73
2018-10-17T03:45:09.655Z,25.70
2018-10-17T03:47:38.048Z,25.20
2018-10-17T03:50:06.475Z,22.50
2018-10-17T03:52:34.850Z,24.60
2018-10-17T03:55:03.304Z,24.60
2018-10-17T03:57:31.653Z,26.60
2018-10-17T04:00:00.048Z,24.00
2018-10-17T04:02:28.418Z,26.80
2018-10-17T04:04:56.832Z,27.17
2018-10-17T04:07:25.224Z,25.70
2018-10-17T04:09:53.618Z,24.30
2018-10-17T04:12:22.003Z,28.23
2018-10-17T04:14:50.421Z,25.63
2018-10-17T04:17:18.869Z,26.97
2018-10-17T04:19:47.224Z,28.73
2018-10-17T04:22:15.601Z,28.30
2018-10-17T04:24:44.011Z,26.80
2018-10-17T04:27:12.388Z,30.00
2018-10-17T04:29:40.819Z,29.57
2018-10-17T04:32:09.394Z,27.13
2018-10-17T04:34:37.801Z,28.90
2018-10-17T04:37:06.278Z,27.77
2018-10-17T04:39:34.648Z,28.90
2018-10-17T04:42:03.050Z,26.77
2018-10-17T04:44:31.431Z,26.40
2018-10-17T04:46:59.844Z,27.70
2018-10-17T04:49:28.222Z,28.40
2018-10-17T04:51:56.623Z,28.47
2018-10-17T04:54:24.999Z,28.93
2018-10-17T04:56:53.398Z,26.27
2018-10-17T04:59:21.780Z,26.53
2018-10-17T05:01:50.191Z,27.20
2018-10-17T05:04:18.585Z,25.67
2018-10-17T05:06:47.092Z,27.87
2018-10-17T05:09:15.678Z,27.97
2018-10-17T05:11:44.080Z,26.80
2018-10-17T05:14:12.457Z,25.07
2018-10-17T05:16:40.848Z,28.37
2018-10-17T05:19:09.263Z,22.90
2018-10-17T05:21:37.651Z,26.53
2018-10-17T05:24:06.044Z,24.77
2018-10-17T05:26:34.447Z,24.50
2018-10-17T05:29:02.909Z,28.43
2018-10-17T05:31:31.291Z,24.40
2018-10-17T05:33:59.667Z,26.27
2018-10-17T05:36:28.071Z,25.10
2018-10-17T05:38:56.472Z,29.70
2018-10-17T05:41:24.865Z,28.90
2018-10-17T05:43:53.333Z,29.70
2018-10-17T05:46:21.725Z,30.07
2018-10-17T05:48:50.211Z,26.20
2018-10-17T05:51:18.607Z,28.23
2018-10-17T05:53:46.978Z,28.80
2018-10-17T05:56:15.379Z,29.10
2018-10-17T05:58:43.757Z,30.57
2018-10-17T06:01:12.292Z,29.70
2018-10-17T06:03:40.575Z,27.73
2018-10-17T06:06:08.966Z,30.13
2018-10-17T06:08:37.361Z,30.90
2018-10-17T06:11:05.867Z,30.93
2018-10-17T06:13:34.233Z,31.13
2018-10-17T06:16:02.615Z,30.60
2018-10-17T06:18:31.035Z,31.60
2018-10-17T06:20:59.408Z,32.73
2018-10-17T06:23:27.811Z,32.40
2018-10-17T06:25:56.183Z,30.03
2018-10-17T06:28:24.618Z,31.80
2018-10-17T06:30:53.035Z,32.07
2018-10-17T06:33:21.425Z,30.93
2018-10-17T06:35:49.793Z,34.10
2018-10-17T06:38:18.194Z,28.10
2018-10-17T06:40:46.567Z,32.10
2018-10-17T06:43:15.089Z,38.20
2018-10-17T06:45:43.452Z,47.90
2018-10-17T06:48:11.846Z,42.67
2018-10-17T06:50:40.217Z,33.50
2018-10-17T06:53:08.735Z,29.93
2018-10-17T06:55:37.065Z,33.00
2018-10-17T06:58:05.607Z,32.67
2018-10-17T07:00:33.985Z,28.37
2018-10-17T07:03:02.391Z,33.00
2018-10-17T07:05:30.768Z,42.43
2018-10-17T07:07:59.187Z,38.67
2018-10-17T07:10:27.751Z,39.03
2018-10-17T07:12:56.225Z,35.13
2018-10-17T07:15:24.632Z,35.57
2018-10-17T07:17:52.995Z,57.20
2018-10-17T07:20:21.381Z,54.83
2018-10-17T07:22:49.791Z,45.10
2018-10-17T07:25:18.254Z,41.63
2018-10-17T07:27:46.619Z,49.13
2018-10-17T07:30:15.029Z,49.60
2018-10-17T07:32:43.420Z,35.00
2018-10-17T07:35:11.823Z,31.77
2018-10-17T07:37:40.202Z,36.90
2018-10-17T07:40:08.699Z,33.90
2018-10-17T07:42:37.083Z,32.77
2018-10-17T07:45:06.366Z,31.70
2018-10-17T07:47:34.780Z,33.83
2018-10-17T07:50:03.344Z,40.40
2018-10-17T07:52:31.735Z,37.50
2018-10-17T07:55:00.155Z,39.43
2018-10-17T07:57:28.547Z,37.27
2018-10-17T07:59:56.958Z,36.97
2018-10-17T08:02:25.343Z,35.77
2018-10-17T08:04:53.755Z,37.60
2018-10-17T08:07:22.139Z,34.83
2018-10-17T08:09:50.542Z,34.23
2018-10-17T08:12:19.006Z,35.47
2018-10-17T08:14:47.447Z,35.60
2018-10-17T08:17:15.835Z,33.10
2018-10-17T08:19:44.239Z,31.47
2018-10-17T08:22:12.619Z,33.83
2018-10-17T08:24:41.013Z,32.73
2018-10-17T08:27:09.407Z,32.27
2018-10-17T08:29:37.811Z,34.20
2018-10-17T08:32:07.387Z,31.03
2018-10-17T08:34:35.789Z,33.30
2018-10-17T08:37:04.516Z,33.67
2018-10-17T08:39:32.620Z,33.63
2018-10-17T08:42:01.005Z,28.87
2018-10-17T08:44:29.471Z,28.43
2018-10-17T08:46:57.855Z,31.47
2018-10-17T08:49:26.255Z,28.40
2018-10-17T08:51:54.643Z,32.40
2018-10-17T08:54:23.054Z,32.13
2018-10-17T08:56:51.434Z,30.97
2018-10-17T08:59:19.838Z,30.20
2018-10-17T09:01:48.229Z,29.27
2018-10-17T09:04:16.633Z,29.33
2018-10-17T09:06:45.010Z,29.80
2018-10-17T09:09:14.073Z,31.37
2018-10-17T09:11:42.783Z,29.23
2018-10-17T09:14:11.749Z,29.40
2018-10-17T09:16:40.577Z,29.40
2018-10-17T09:19:09.672Z,27.90
2018-10-17T09:21:38.487Z,25.80
2018-10-17T09:24:06.796Z,27.27
2018-10-17T09:26:35.227Z,26.03
2018-10-17T09:29:03.653Z,27.23
2018-10-17T09:31:32.078Z,25.57
2018-10-17T09:34:00.524Z,25.70
2018-10-17T09:36:28.903Z,23.87
2018-10-17T09:38:57.285Z,26.83
2018-10-17T09:41:25.696Z,24.50
2018-10-17T09:43:54.091Z,23.57
2018-10-17T09:46:22.513Z,25.20
2018-10-17T09:48:50.894Z,24.70
2018-10-17T09:51:19.298Z,26.33
2018-10-17T09:53:47.674Z,23.30
2018-10-17T09:56:16.070Z,24.57
2018-10-17T09:58:44.463Z,23.30
2018-10-17T10:01:16.523Z,25.03
2018-10-17T10:03:44.939Z,21.20
2018-10-17T10:06:13.524Z,24.17
2018-10-17T10:08:41.917Z,22.70
2018-10-17T10:11:10.422Z,23.40
2018-10-17T10:13:38.746Z,22.70
2018-10-17T10:16:07.186Z,23.83
2018-10-17T10:18:35.550Z,23.47
2018-10-17T10:21:03.959Z,23.83
2018-10-17T10:23:32.358Z,23.10
2018-10-17T10:26:00.869Z,21.57
2018-10-17T10:28:29.288Z,21.20
2018-10-17T10:30:57.712Z,23.50
2018-10-17T10:33:26.087Z,23.83
2018-10-17T10:35:54.497Z,24.00
2018-10-17T10:38:22.922Z,20.60
2018-10-17T10:40:51.321Z,21.73
2018-10-17T10:43:19.703Z,22.33
2018-10-17T10:45:48.121Z,22.23
2018-10-17T10:48:16.613Z,21.63
2018-10-17T10:50:44.930Z,24.37
2018-10-17T10:53:13.305Z,27.83
2018-10-17T10:55:41.701Z,28.37
2018-10-17T10:58:10.145Z,20.40
2018-10-17T11:00:39.535Z,21.57
2018-10-17T11:03:07.973Z,21.30
2018-10-17T11:05:36.351Z,21.60
2018-10-17T11:08:04.844Z,21.00
2018-10-17T11:10:33.166Z,18.30
2018-10-17T11:13:01.544Z,18.67
2018-10-17T11:15:29.931Z,19.03
2018-10-17T11:17:58.335Z,20.90
2018-10-17T11:20:26.723Z,19.23
2018-10-17T11:22:55.201Z,19.57
2018-10-17T11:25:23.552Z,18.17
2018-10-17T11:27:51.950Z,20.73
2018-10-17T11:30:20.446Z,18.60
2018-10-17T11:32:48.881Z,19.00
2018-10-17T11:35:17.399Z,18.60
2018-10-17T11:37:45.776Z,18.40
2018-10-17T11:40:14.260Z,18.73
2018-10-17T11:42:42.538Z,18.50
2018-10-17T11:45:10.989Z,18.87
2018-10-17T11:47:39.382Z,17.93
2018-10-17T11:50:09.183Z,16.63
2018-10-17T11:52:37.791Z,15.67
2018-10-17T11:55:06.332Z,15.77
2018-10-17T11:57:34.851Z,15.23
2018-10-17T12:00:03.478Z,15.90
2018-10-17T12:02:31.891Z,16.10
2018-10-17T12:05:00.469Z,15.50
2018-10-17T12:07:28.715Z,14.00
2018-10-17T12:09:57.111Z,15.10
2018-10-17T12:12:25.557Z,15.10
2018-10-17T12:14:54.064Z,15.40
2018-10-17T12:17:22.455Z,15.23
2018-10-17T12:19:50.903Z,16.60
2018-10-17T12:22:19.267Z,14.60
2018-10-17T12:24:47.659Z,16.53
2018-10-17T12:27:16.145Z,15.43
2018-10-17T12:29:44.501Z,14.80
2018-10-17T12:32:12.927Z,16.57
2018-10-17T12:34:41.431Z,15.67
2018-10-17T12:37:09.822Z,16.27
2018-10-17T12:39:38.215Z,18.10
2018-10-17T12:42:06.623Z,15.40
2018-10-17T12:44:35.011Z,16.93
2018-10-17T12:47:03.434Z,17.60
2018-10-17T12:49:31.849Z,16.30
2018-10-17T12:52:00.287Z,16.10
2018-10-17T12:54:28.669Z,15.60
2018-10-17T12:56:57.039Z,14.70
2018-10-17T12:59:25.444Z,17.27
2018-10-17T13:01:53.831Z,17.43
2018-10-17T13:04:22.232Z,16.10
2018-10-17T13:06:50.609Z,17.33
2018-10-17T13:09:19.001Z,17.27
2018-10-17T13:11:47.433Z,17.30
2018-10-17T13:14:15.849Z,16.17
2018-10-17T13:16:44.235Z,18.27
2018-10-17T13:19:12.705Z,18.13
2018-10-17T13:21:41.044Z,15.97
2018-10-17T13:24:09.451Z,18.07
2018-10-17T13:26:37.821Z,17.37
2018-10-17T13:29:06.661Z,17.90
2018-10-17T13:31:35.019Z,16.67
2018-10-17T13:34:03.482Z,16.63
2018-10-17T13:36:31.866Z,15.80
2018-10-17T13:39:00.357Z,15.30
2018-10-17T13:41:28.733Z,15.83
2018-10-17T13:43:57.129Z,15.73
2018-10-17T13:46:25.514Z,18.43
2018-10-17T13:48:53.959Z,14.60
2018-10-17T13:51:22.343Z,17.07
2018-10-17T13:53:50.747Z,17.07
2018-10-17T13:56:19.235Z,16.73
2018-10-17T13:58:47.641Z,15.53
2018-10-17T14:01:16.098Z,15.40
2018-10-17T14:03:44.459Z,14.80
2018-10-17T14:06:12.919Z,14.77
2018-10-17T14:08:41.281Z,15.00
2018-10-17T14:11:09.665Z,15.47
2018-10-17T14:13:38.086Z,17.50
2018-10-17T14:16:06.749Z,14.63
2018-10-17T14:18:35.149Z,14.83
2018-10-17T14:21:03.599Z,14.70
2018-10-17T14:23:32.055Z,14.53
2018-10-17T14:26:00.589Z,14.00
2018-10-17T14:28:28.999Z,14.80
2018-10-17T14:30:59.125Z,15.90
2018-10-17T14:33:27.518Z,15.87
2018-10-17T14:35:56.022Z,16.00
2018-10-17T14:38:24.326Z,15.43
2018-10-17T14:40:52.719Z,17.53
2018-10-17T14:43:21.125Z,14.83
2018-10-17T14:45:49.540Z,16.50
2018-10-17T14:48:18.048Z,15.53
2018-10-17T14:50:46.357Z,15.80
2018-10-17T14:53:14.833Z,14.20
2018-10-17T14:55:43.255Z,15.40
2018-10-17T14:58:11.611Z,15.50
2018-10-17T15:00:40.026Z,15.57
2018-10-17T15:03:08.430Z,16.47
2018-10-17T15:05:36.947Z,15.03
2018-10-17T15:08:05.332Z,16.47
2018-10-17T15:10:33.833Z,16.20
2018-10-17T15:13:02.518Z,15.27
2018-10-17T15:15:30.917Z,15.97
2018-10-17T15:17:59.322Z,15.70
2018-10-17T15:20:27.744Z,15.80
2018-10-17T15:22:56.122Z,16.87
2018-10-17T15:25:24.527Z,17.23
2018-10-17T15:27:52.897Z,15.20
2018-10-17T15:30:21.323Z,15.20
2018-10-17T15:32:49.723Z,16.60
2018-10-17T15:35:18.122Z,19.10
2018-10-17T15:37:46.511Z,15.83
2018-10-17T15:40:14.912Z,20.53
2018-10-17T15:42:43.307Z,18.60
2018-10-17T15:45:11.765Z,20.57
2018-10-17T15:47:40.104Z,22.33
2018-10-17T15:50:08.514Z,19.90
2018-10-17T15:52:36.935Z,20.40
2018-10-17T15:55:05.703Z,20.37
2018-10-17T15:57:34.074Z,24.13
2018-10-17T16:00:02.543Z,21.40
2018-10-17T16:02:30.947Z,22.03
2018-10-17T16:04:59.314Z,23.70
2018-10-17T16:07:27.691Z,27.23
2018-10-17T16:09:56.099Z,23.60
2018-10-17T16:12:24.483Z,33.70
2018-10-17T16:14:52.888Z,38.10
2018-10-17T16:17:21.270Z,37.40
2018-10-17T16:19:49.673Z,49.10
2018-10-17T16:22:18.081Z,51.27
2018-10-17T16:24:46.497Z,55.40
2018-10-17T16:27:14.884Z,61.60
2018-10-17T16:29:43.261Z,53.80
2018-10-17T16:32:11.737Z,52.07
2018-10-17T16:34:40.141Z,45.20
2018-10-17T16:37:08.553Z,33.47
2018-10-17T16:39:36.947Z,30.03
2018-10-17T16:42:05.865Z,28.93
2018-10-17T16:44:34.216Z,26.87
2018-10-17T16:47:02.661Z,29.43
2018-10-17T16:49:31.118Z,30.43
2018-10-17T16:51:59.496Z,26.60
2018-10-17T16:54:27.871Z,29.90
2018-10-17T16:56:56.298Z,28.97
2018-10-17T16:59:24.701Z,35.70
2018-10-17T17:01:53.115Z,37.93
2018-10-17T17:04:21.557Z,28.90
2018-10-17T17:06:50.055Z,29.20
2018-10-17T17:09:18.557Z,27.07
2018-10-17T17:11:46.902Z,27.80
2018-10-17T17:14:15.308Z,26.80
2018-10-17T17:16:43.715Z,24.07
2018-10-17T17:19:12.275Z,21.67
2018-10-17T17:21:40.702Z,24.07
2018-10-17T17:24:09.161Z,22.00
2018-10-17T17:26:37.534Z,24.37
2018-10-17T17:29:06.195Z,22.60
2018-10-17T17:31:34.620Z,24.77
2018-10-17T17:34:03.001Z,27.60
2018-10-17T17:36:31.724Z,29.93
2018-10-17T17:39:00.080Z,34.00
2018-10-17T17:41:28.478Z,27.03
2018-10-17T17:43:56.983Z,27.67
2018-10-17T17:46:25.397Z,24.70
2018-10-17T17:48:53.787Z,29.50
2018-10-17T17:51:22.201Z,28.77
2018-10-17T17:53:50.580Z,30.10
2018-10-17T17:56:18.985Z,31.33
2018-10-17T17:58:47.374Z,26.83
2018-10-17T18:01:15.782Z,30.77
2018-10-17T18:03:44.161Z,28.57
2018-10-17T18:06:12.570Z,28.63
2018-10-17T18:08:40.959Z,29.20
2018-10-17T18:11:18.008Z,30.03
2018-10-17T18:13:46.395Z,31.73
2018-10-17T18:16:14.844Z,34.93
2018-10-17T18:18:43.635Z,30.17
2018-10-17T18:21:12.083Z,32.97
2018-10-17T18:23:41.002Z,33.70
2018-10-17T18:26:09.722Z,35.07
2018-10-17T18:28:38.146Z,35.90
2018-10-17T18:31:06.586Z,39.67
2018-10-17T18:33:34.990Z,36.40
2018-10-17T18:36:03.575Z,33.73
2018-10-17T18:38:31.982Z,29.37
2018-10-17T18:41:00.575Z,33.33
2018-10-17T18:43:28.979Z,38.53
2018-10-17T18:45:57.362Z,37.30
2018-10-17T18:48:26.032Z,37.10
2018-10-17T18:50:54.471Z,38.03
2018-10-17T18:53:22.989Z,38.87
2018-10-17T18:55:52.031Z,44.27
2018-10-17T18:58:20.490Z,42.27
2018-10-17T19:00:48.873Z,40.13
2018-10-17T19:03:17.288Z,32.77
2018-10-17T19:05:45.678Z,32.10
2018-10-17T19:08:14.167Z,34.23
2018-10-17T19:10:42.495Z,34.10
2018-10-17T19:13:10.899Z,33.70
2018-10-17T19:15:39.322Z,40.27
2018-10-17T19:18:07.759Z,38.03
2018-10-17T19:20:36.202Z,37.63
2018-10-17T19:23:04.819Z,38.60
2018-10-17T19:25:33.205Z,35.13
2018-10-17T19:28:01.623Z,29.33
2018-10-17T19:30:30.052Z,35.50
2018-10-17T19:32:58.488Z,31.27
2018-10-17T19:35:26.853Z,35.87
2018-10-17T19:37:55.381Z,36.10
2018-10-17T19:40:23.749Z,37.30
2018-10-17T19:42:52.182Z,36.27
2018-10-17T19:45:20.575Z,35.27
2018-10-17T19:47:49.060Z,34.37
2018-10-17T19:50:17.561Z,36.17
2018-10-17T19:52:45.953Z,39.30
2018-10-17T19:55:14.365Z,37.10
2018-10-17T19:57:42.771Z,34.43
2018-10-17T20:00:13.163Z,35.87
2018-10-17T20:02:42.034Z,38.60
2018-10-17T20:05:10.691Z,35.00
2018-10-17T20:07:39.536Z,33.03
2018-10-17T20:10:07.942Z,38.87
2018-10-17T20:12:36.315Z,35.63
2018-10-17T20:15:05.102Z,31.87
2018-10-17T20:17:33.532Z,35.73
2018-10-17T20:20:02.026Z,29.37
2018-10-17T20:22:30.423Z,31.30
2018-10-17T20:24:58.859Z,34.97
2018-10-17T20:27:27.247Z,34.07
2018-10-17T20:29:55.656Z,36.80
2018-10-17T20:32:24.101Z,34.57
2018-10-17T20:34:52.506Z,37.63
2018-10-17T20:37:20.906Z,36.73
2018-10-17T20:39:49.324Z,38.40
2018-10-17T20:42:17.808Z,35.30
2018-10-17T20:44:46.154Z,31.70
2018-10-17T20:47:14.522Z,35.37
2018-10-17T20:49:43.027Z,35.53
2018-10-17T20:52:11.429Z,34.90
2018-10-17T20:54:39.825Z,32.17
2018-10-17T20:57:08.214Z,33.60
2018-10-17T20:59:36.619Z,33.00
2018-10-17T21:02:05.223Z,30.90
2018-10-17T21:04:33.616Z,30.57
2018-10-17T21:07:02.002Z,34.83
2018-10-17T21:09:30.406Z,33.43
2018-10-17T21:11:58.839Z,34.00
2018-10-17T21:14:27.253Z,37.40
2018-10-17T21:16:55.636Z,34.67
2018-10-17T21:19:24.037Z,35.03
2018-10-17T21:21:52.410Z,32.37
2018-10-17T21:24:20.815Z,34.30
2018-10-17T21:26:49.216Z,35.57
2018-10-17T21:29:17.663Z,33.80
2018-10-17T21:31:46.067Z,34.67
2018-10-17T21:34:14.471Z,33.73
2018-10-17T21:36:42.850Z,33.00
2018-10-17T21:39:12.623Z,33.60
2018-10-17T21:41:41.016Z,31.77
2018-10-17T21:44:10.478Z,33.73
2018-10-17T21:46:39.171Z,35.33
2018-10-17T21:49:08.490Z,33.47
2018-10-17T21:51:36.880Z,35.87
2018-10-17T21:54:05.706Z,34.17
2018-10-17T21:56:34.098Z,32.83
2018-10-17T21:59:02.608Z,34.60
2018-10-17T22:01:31.107Z,34.70
2018-10-17T22:03:59.487Z,33.77
2018-10-17T22:06:27.902Z,30.73
2018-10-17T22:08:56.291Z,32.30
2018-10-17T22:11:24.685Z,30.37
2018-10-17T22:13:53.087Z,31.50
2018-10-17T22:16:21.789Z,33.10
2018-10-17T22:18:50.255Z,33.40
2018-10-17T22:21:18.621Z,33.20
2018-10-17T22:23:46.993Z,35.93
2018-10-17T22:26:15.499Z,34.90
2018-10-17T22:28:43.840Z,33.37
2018-10-17T22:31:12.255Z,34.00
2018-10-17T22:33:40.644Z,35.50
2018-10-17T22:36:09.079Z,33.97
2018-10-17T22:38:37.453Z,33.47
2018-10-17T22:41:05.902Z,33.67
2018-10-17T22:43:34.298Z,32.60
2018-10-17T22:46:02.692Z,34.20
2018-10-17T22:48:31.078Z,34.97
2018-10-17T22:50:59.475Z,30.87
2018-10-17T22:53:27.852Z,31.20
2018-10-17T22:55:56.299Z,35.00
2018-10-17T22:58:24.983Z,32.70
2018-10-17T23:00:53.387Z,31.40
2018-10-17T23:03:21.758Z,31.40
2018-10-17T23:05:50.171Z,33.70
2018-10-17T23:08:18.961Z,34.53
2018-10-17T23:10:47.579Z,45.37
2018-10-17T23:13:15.954Z,42.13
2018-10-17T23:15:44.444Z,48.77
2018-10-17T23:18:12.819Z,48.10
2018-10-17T23:20:41.222Z,46.70
2018-10-17T23:23:09.585Z,45.73
2018-10-17T23:25:37.982Z,43.13
2018-10-17T23:28:06.354Z,37.77
2018-10-17T23:30:34.791Z,37.63
2018-10-17T23:33:03.166Z,38.90
2018-10-17T23:35:31.572Z,39.37
2018-10-17T23:38:00.008Z,41.00
2018-10-17T23:40:28.427Z,39.10
2018-10-17T23:42:56.807Z,41.00
2018-10-17T23:45:25.189Z,41.70
2018-10-17T23:47:53.636Z,39.10
2018-10-17T23:50:21.995Z,40.27
2018-10-17T23:52:50.398Z,40.37
2018-10-17T23:55:18.849Z,39.97
2018-10-17T23:57:47.256Z,40.20
